createdAt,value
2018-07-01T00:01:42.179Z,100167.90
2018-07-01T00:04:08.141Z,100168.53
2018-07-01T00:06:34.116Z,100168.70
2018-07-01T00:09:00.092Z,100172.31
2018-07-01T00:11:26.030Z,100179.09
2018-07-01T00:13:52.019Z,100176.59
2018-07-01T00:16:17.964Z,100180.08
2018-07-01T00:18:43.922Z,100175.78
2018-07-01T00:21:09.877Z,100178.92
2018-07-01T00:23:35.846Z,100175.55
2018-07-01T00:26:01.820Z,100174.83
2018-07-01T00:28:27.781Z,100176.42
2018-07-01T00:30:53.758Z,100174.83
2018-07-01T00:33:19.694Z,100171.36
2018-07-01T00:35:45.642Z,100168.67
2018-07-01T00:38:11.595Z,100173.93
2018-07-01T00:40:37.551Z,100169.13
2018-07-01T00:43:03.483Z,100170.77
2018-07-01T00:45:29.416Z,100166.52
2018-07-01T00:47:55.350Z,100175.44
2018-07-01T00:50:21.301Z,100165.58
2018-07-01T00:52:47.250Z,100165.72
2018-07-01T00:55:13.202Z,100169.95
2018-07-01T00:57:39.181Z,100168.90
2018-07-01T01:00:05.139Z,100169.33
2018-07-01T01:02:31.148Z,100176.96
2018-07-01T01:04:57.092Z,100174.45
2018-07-01T01:07:23.017Z,100176.97
2018-07-01T01:09:48.974Z,100173.73
2018-07-01T01:12:14.934Z,100171.28
2018-07-01T01:14:40.880Z,100171.44
2018-07-01T01:17:06.885Z,100173.39
2018-07-01T01:19:32.843Z,100171.81
2018-07-01T01:21:58.814Z,100172.34
2018-07-01T01:24:24.776Z,100171.77
2018-07-01T01:26:50.721Z,100181.78
2018-07-01T01:29:16.693Z,100175.81
2018-07-01T01:31:42.682Z,100173.55
2018-07-01T01:34:08.666Z,100172.78
2018-07-01T01:36:34.621Z,100173.17
2018-07-01T01:39:00.561Z,100169.00
2018-07-01T01:41:26.564Z,100168.56
2018-07-01T01:43:52.506Z,100174.01
2018-07-01T01:46:18.440Z,100174.14
2018-07-01T01:48:44.380Z,100177.75
2018-07-01T01:51:10.337Z,100170.38
2018-07-01T01:53:36.273Z,100175.77
2018-07-01T01:56:02.199Z,100176.73
2018-07-01T01:58:28.141Z,100176.06
2018-07-01T02:00:54.090Z,100178.13
2018-07-01T02:03:20.048Z,100172.34
2018-07-01T02:05:46.047Z,100175.42
2018-07-01T02:08:11.993Z,100182.90
2018-07-01T02:10:37.928Z,100178.21
2018-07-01T02:13:03.860Z,100179.59
2018-07-01T02:15:29.814Z,100183.61
2018-07-01T02:17:55.764Z,100184.19
2018-07-01T02:20:21.721Z,100187.16
2018-07-01T02:22:47.672Z,100192.30
2018-07-01T02:25:13.658Z,100196.70
2018-07-01T02:27:39.612Z,100192.59
2018-07-01T02:30:05.564Z,100190.85
2018-07-01T02:32:31.503Z,100194.38
2018-07-01T02:34:57.455Z,100190.63
2018-07-01T02:37:23.405Z,100191.58
2018-07-01T02:39:49.339Z,100192.70
2018-07-01T02:42:15.328Z,100192.98
2018-07-01T02:44:41.288Z,100200.13
2018-07-01T02:47:07.244Z,100195.72
2018-07-01T02:49:33.195Z,100197.11
2018-07-01T02:51:59.159Z,100198.98
2018-07-01T02:54:25.117Z,100196.20
2018-07-01T02:56:51.116Z,100205.08
2018-07-01T02:59:17.051Z,100210.09
2018-07-01T03:01:43.022Z,100202.97
2018-07-01T03:04:08.981Z,100211.55
2018-07-01T03:06:34.956Z,100208.40
2018-07-01T03:09:00.900Z,100211.31
2018-07-01T03:11:26.920Z,100214.67
2018-07-01T03:13:52.866Z,100213.84
2018-07-01T03:16:18.833Z,100213.54
2018-07-01T03:18:44.773Z,100222.59
2018-07-01T03:21:10.697Z,100225.95
2018-07-01T03:23:36.642Z,100224.00
2018-07-01T03:26:02.592Z,100222.30
2018-07-01T03:28:28.540Z,100221.05
2018-07-01T03:30:54.491Z,100199.39
2018-07-01T03:33:20.437Z,100223.02
2018-07-01T03:35:46.388Z,100224.97
2018-07-01T03:38:12.352Z,100234.33
2018-07-01T03:40:38.308Z,100227.15
2018-07-01T03:43:04.323Z,100230.41
2018-07-01T03:45:30.319Z,100223.59
2018-07-01T03:47:56.268Z,100235.08
2018-07-01T03:50:22.293Z,100235.09
2018-07-01T03:52:48.296Z,100237.17
2018-07-01T03:55:14.278Z,100247.01
2018-07-01T03:57:40.281Z,100243.25
2018-07-01T04:00:06.247Z,100250.50
2018-07-01T04:02:32.196Z,100251.27
2018-07-01T04:04:58.937Z,100255.93
2018-07-01T04:07:24.915Z,100260.13
2018-07-01T04:09:50.893Z,100253.77
2018-07-01T04:12:16.853Z,100256.71
2018-07-01T04:14:42.805Z,100260.47
2018-07-01T04:17:08.801Z,100266.16
2018-07-01T04:19:34.748Z,100267.44
2018-07-01T04:22:00.720Z,100267.00
2018-07-01T04:24:26.668Z,100272.31
2018-07-01T04:26:52.609Z,100278.58
2018-07-01T04:29:18.582Z,100277.88
2018-07-01T04:31:44.599Z,100284.66
2018-07-01T04:34:10.562Z,100292.92
2018-07-01T04:36:36.506Z,100290.64
2018-07-01T04:39:02.483Z,100287.22
2018-07-01T04:41:28.525Z,100284.61
2018-07-01T04:43:54.479Z,100282.70
2018-07-01T04:46:20.415Z,100286.91
2018-07-01T04:48:46.356Z,100285.59
2018-07-01T04:51:12.312Z,100281.92
2018-07-01T04:53:38.271Z,100293.66
2018-07-01T04:56:04.211Z,100288.45
2018-07-01T04:58:30.177Z,100289.94
2018-07-01T05:00:56.139Z,100288.16
2018-07-01T05:03:22.131Z,100288.52
2018-07-01T05:05:48.080Z,100288.59
2018-07-01T05:08:14.040Z,100295.20
2018-07-01T05:10:39.977Z,100289.62
2018-07-01T05:13:05.945Z,100295.41
2018-07-01T05:15:31.950Z,100298.23
2018-07-01T05:17:57.900Z,100293.12
2018-07-01T05:20:23.855Z,100295.39
2018-07-01T05:22:49.823Z,100298.80
2018-07-01T05:25:15.767Z,100303.86
2018-07-01T05:27:41.725Z,100301.48
2018-07-01T05:30:07.643Z,100301.06
2018-07-01T05:32:33.576Z,100305.47
2018-07-01T05:34:59.556Z,100302.24
2018-07-01T05:37:25.503Z,100302.81
2018-07-01T05:39:51.461Z,100307.00
2018-07-01T05:42:17.414Z,100306.12
2018-07-01T05:44:43.371Z,100304.06
2018-07-01T05:47:09.334Z,100305.37
2018-07-01T05:49:35.280Z,100306.17
2018-07-01T05:52:02.250Z,100306.64
2018-07-01T05:54:28.211Z,100308.66
2018-07-01T05:56:54.146Z,100310.58
2018-07-01T05:59:20.114Z,100316.16
2018-07-01T06:01:46.092Z,100307.27
2018-07-01T06:04:12.069Z,100309.44
2018-07-01T06:06:38.010Z,100311.53
2018-07-01T06:09:03.975Z,100308.16
2018-07-01T06:11:29.921Z,100311.42
2018-07-01T06:13:55.893Z,100303.33
2018-07-01T06:16:21.839Z,100300.58
2018-07-01T06:18:47.802Z,100307.67
2018-07-01T06:21:15.760Z,100300.70
2018-07-01T06:23:41.722Z,100300.75
2018-07-01T06:26:07.687Z,100305.70
2018-07-01T06:28:33.640Z,100303.80
2018-07-01T06:30:59.596Z,100305.28
2018-07-01T06:33:25.560Z,100309.21
2018-07-01T06:35:51.527Z,100314.10
2018-07-01T06:38:17.469Z,100314.08
2018-07-01T06:40:43.423Z,100308.14
2018-07-01T06:43:09.363Z,100307.80
2018-07-01T06:45:35.297Z,100309.52
2018-07-01T06:48:01.262Z,100313.00
2018-07-01T06:50:27.212Z,100308.94
2018-07-01T06:52:53.161Z,100305.44
2018-07-01T06:55:19.175Z,100307.40
2018-07-01T06:57:45.125Z,100310.66
2018-07-01T07:00:11.085Z,100314.22
2018-07-01T07:02:37.036Z,100315.79
2018-07-01T07:05:03.099Z,100308.21
2018-07-01T07:07:29.036Z,100312.33
2018-07-01T07:09:55.005Z,100309.52
2018-07-01T07:12:20.953Z,100311.84
2018-07-01T07:14:46.916Z,100309.02
2018-07-01T07:17:12.852Z,100311.23
2018-07-01T07:19:38.792Z,100320.16
2018-07-01T07:22:04.741Z,100315.85
2018-07-01T07:24:30.751Z,100320.72
2018-07-01T07:26:56.657Z,100318.98
2018-07-01T07:29:22.606Z,100308.36
2018-07-01T07:31:48.594Z,100310.94
2018-07-01T07:34:14.581Z,100312.45
2018-07-01T07:36:40.544Z,100321.67
2018-07-01T07:39:06.510Z,100313.48
2018-07-01T07:41:32.465Z,100314.47
2018-07-01T07:43:58.432Z,100301.52
2018-07-01T07:46:24.443Z,100308.25
2018-07-01T07:48:50.444Z,100318.92
2018-07-01T07:51:16.399Z,100312.34
2018-07-01T07:53:42.374Z,100314.56
2018-07-01T07:56:08.320Z,100307.00
2018-07-01T07:58:34.284Z,100309.98
2018-07-01T08:01:00.260Z,100316.91
2018-07-01T08:03:26.219Z,100308.80
2018-07-01T08:05:52.185Z,100298.89
2018-07-01T08:08:18.112Z,100305.62
2018-07-01T08:10:44.086Z,100302.69
2018-07-01T08:13:10.155Z,100307.61
2018-07-01T08:15:36.076Z,100312.92
2018-07-01T08:18:02.049Z,100302.55
2018-07-01T08:20:28.019Z,100300.06
2018-07-01T08:22:53.973Z,100311.69
2018-07-01T08:25:20.001Z,100311.59
2018-07-01T08:27:45.954Z,100305.11
2018-07-01T08:30:11.939Z,100311.09
2018-07-01T08:32:37.917Z,100309.75
2018-07-01T08:35:03.869Z,100305.52
2018-07-01T08:37:29.798Z,100315.55
2018-07-01T08:39:55.768Z,100314.75
2018-07-01T08:42:21.720Z,100318.44
2018-07-01T08:44:47.668Z,100316.54
2018-07-01T08:47:13.603Z,100320.68
2018-07-01T08:49:39.534Z,100314.74
2018-07-01T08:52:05.478Z,100317.83
2018-07-01T08:54:31.443Z,100312.06
2018-07-01T08:56:57.433Z,100319.66
2018-07-01T08:59:23.440Z,100327.85
2018-07-01T09:01:49.384Z,100322.49
2018-07-01T09:04:15.311Z,100319.14
2018-07-01T09:06:41.257Z,100308.70
2018-07-01T09:09:07.216Z,100307.22
2018-07-01T09:11:33.184Z,100306.59
2018-07-01T09:13:59.144Z,100305.47
2018-07-01T09:16:25.128Z,100305.73
2018-07-01T09:18:51.073Z,100315.51
2018-07-01T09:21:17.044Z,100307.95
2018-07-01T09:23:42.992Z,100310.88
2018-07-01T09:26:09.006Z,100303.08
2018-07-01T09:28:34.960Z,100308.13
2018-07-01T09:31:00.905Z,100299.53
2018-07-01T09:33:26.841Z,100305.37
2018-07-01T09:35:52.813Z,100303.95
2018-07-01T09:38:18.765Z,100299.03
2018-07-01T09:40:44.739Z,100297.02
2018-07-01T09:43:10.706Z,100302.28
2018-07-01T09:45:36.877Z,100296.95
2018-07-01T09:48:02.824Z,100296.02
2018-07-01T09:50:28.907Z,100296.23
2018-07-01T09:52:54.737Z,100304.59
2018-07-01T09:55:20.793Z,100296.95
2018-07-01T09:57:46.747Z,100290.12
2018-07-01T10:00:12.681Z,100296.14
2018-07-01T10:02:38.631Z,100287.60
2018-07-01T10:05:04.653Z,100285.03
2018-07-01T10:07:30.658Z,100286.15
2018-07-01T10:09:56.705Z,100291.28
2018-07-01T10:12:22.655Z,100285.89
2018-07-01T10:14:48.674Z,100289.35
2018-07-01T10:17:14.645Z,100284.63
2018-07-01T10:19:40.641Z,100282.66
2018-07-01T10:22:06.603Z,100282.30
2018-07-01T10:24:32.694Z,100285.83
2018-07-01T10:26:58.663Z,100273.09
2018-07-01T10:29:24.668Z,100277.34
2018-07-01T10:31:50.621Z,100273.90
2018-07-01T10:34:16.595Z,100273.72
2018-07-01T10:36:42.579Z,100278.75
2018-07-01T10:39:08.553Z,100271.59
2018-07-01T10:41:34.519Z,100266.41
2018-07-01T10:44:00.509Z,100268.92
2018-07-01T10:46:26.475Z,100270.38
2018-07-01T10:48:52.517Z,100281.41
2018-07-01T10:51:18.518Z,100280.22
2018-07-01T10:53:44.550Z,100275.00
2018-07-01T10:56:10.518Z,100281.37
2018-07-01T10:58:36.498Z,100279.73
2018-07-01T11:01:02.444Z,100277.37
2018-07-01T11:03:28.447Z,100272.40
2018-07-01T11:05:54.453Z,100285.59
2018-07-01T11:08:20.431Z,100283.26
2018-07-01T11:10:46.547Z,100284.69
2018-07-01T11:13:12.510Z,100282.03
2018-07-01T11:15:38.516Z,100281.86
2018-07-01T11:18:04.488Z,100278.56
2018-07-01T11:20:30.555Z,100272.05
2018-07-01T11:22:56.550Z,100274.70
2018-07-01T11:25:22.821Z,100273.09
2018-07-01T11:27:48.777Z,100274.23
2018-07-01T11:30:14.727Z,100272.46
2018-07-01T11:32:40.795Z,100269.75
2018-07-01T11:35:06.750Z,100271.11
2018-07-01T11:37:32.718Z,100263.15
2018-07-01T11:39:58.658Z,100265.02
2018-07-01T11:42:24.599Z,100259.89
2018-07-01T11:44:50.593Z,100250.80
2018-07-01T11:47:16.597Z,100255.73
2018-07-01T11:49:42.524Z,100254.69
2018-07-01T11:52:08.507Z,100253.09
2018-07-01T11:54:34.489Z,100254.34
2018-07-01T11:57:00.464Z,100251.00
2018-07-01T11:59:26.478Z,100245.45
2018-07-01T12:01:52.515Z,100239.33
2018-07-01T12:04:18.433Z,100231.20
2018-07-01T12:06:44.406Z,100230.88
2018-07-01T12:09:10.382Z,100231.69
2018-07-01T12:11:36.342Z,100238.72
2018-07-01T12:14:02.289Z,100232.27
2018-07-01T12:16:28.249Z,100233.78
2018-07-01T12:18:54.385Z,100228.73
2018-07-01T12:21:20.340Z,100227.09
2018-07-01T12:23:46.301Z,100224.23
2018-07-01T12:26:12.256Z,100214.13
2018-07-01T12:28:38.230Z,100216.20
2018-07-01T12:31:04.230Z,100210.14
2018-07-01T12:33:30.238Z,100209.63
2018-07-01T12:35:56.171Z,100213.22
2018-07-01T12:38:22.141Z,100207.23
2018-07-01T12:40:48.099Z,100218.50
2018-07-01T12:43:14.049Z,100211.70
2018-07-01T12:45:39.991Z,100210.52
2018-07-01T12:48:05.977Z,100212.64
2018-07-01T12:50:31.948Z,100220.33
2018-07-01T12:52:57.924Z,100205.91
2018-07-01T12:55:23.916Z,100215.20
2018-07-01T12:57:49.853Z,100205.91
2018-07-01T13:00:15.825Z,100202.69
2018-07-01T13:02:41.841Z,100207.67
2018-07-01T13:05:07.780Z,100195.94
2018-07-01T13:07:33.783Z,100202.03
2018-07-01T13:09:59.719Z,100197.79
2018-07-01T13:12:25.703Z,100194.75
2018-07-01T13:14:51.649Z,100204.62
2018-07-01T13:17:17.632Z,100192.09
2018-07-01T13:19:43.648Z,100176.47
2018-07-01T13:22:09.600Z,100176.32
2018-07-01T13:24:35.556Z,100180.22
2018-07-01T13:27:01.613Z,100178.95
2018-07-01T13:29:27.600Z,100177.47
2018-07-01T13:31:53.576Z,100176.09
2018-07-01T13:34:19.512Z,100172.23
2018-07-01T13:36:45.445Z,100174.14
2018-07-01T13:39:11.420Z,100174.71
2018-07-01T13:41:37.387Z,100180.08
2018-07-01T13:44:03.338Z,100179.70
2018-07-01T13:46:29.284Z,100175.80
2018-07-01T13:48:55.228Z,100171.09
2018-07-01T13:51:21.203Z,100170.52
2018-07-01T13:53:47.190Z,100177.70
2018-07-01T13:56:13.148Z,100166.27
2018-07-01T13:58:39.136Z,100176.90
2018-07-01T14:01:05.207Z,100171.09
2018-07-01T14:03:31.151Z,100178.89
2018-07-01T14:05:57.158Z,100175.31
2018-07-01T14:08:23.150Z,100177.63
2018-07-01T14:10:49.110Z,100174.67
2018-07-01T14:13:15.061Z,100172.15
2018-07-01T14:15:41.031Z,100177.94
2018-07-01T14:18:06.995Z,100181.42
2018-07-01T14:20:32.942Z,100173.44
2018-07-01T14:22:58.907Z,100169.77
2018-07-01T14:25:24.883Z,100168.91
2018-07-01T14:27:50.827Z,100177.13
2018-07-01T14:30:16.799Z,100173.37
2018-07-01T14:32:42.785Z,100166.52
2018-07-01T14:35:08.750Z,100170.03
2018-07-01T14:37:34.754Z,100163.64
2018-07-01T14:40:01.016Z,100153.91
2018-07-01T14:42:27.071Z,100161.17
2018-07-01T14:44:53.090Z,100168.59
2018-07-01T14:47:19.118Z,100166.80
2018-07-01T14:49:45.126Z,100171.39
2018-07-01T14:52:11.206Z,100173.58
2018-07-01T14:54:37.262Z,100163.23
2018-07-01T14:57:03.223Z,100161.23
2018-07-01T14:59:29.213Z,100161.89
2018-07-01T15:01:55.172Z,100163.98
2018-07-01T15:04:21.123Z,100157.62
2018-07-01T15:06:47.107Z,100155.58
2018-07-01T15:09:13.061Z,100153.88
2018-07-01T15:11:39.025Z,100147.28
2018-07-01T15:14:05.087Z,100149.37
2018-07-01T15:16:31.085Z,100151.16
2018-07-01T15:18:57.068Z,100145.66
2018-07-01T15:21:23.120Z,100152.41
2018-07-01T15:23:49.074Z,100145.16
2018-07-01T15:26:15.105Z,100145.95
2018-07-01T15:28:41.091Z,100137.52
2018-07-01T15:31:07.062Z,100133.59
2018-07-01T15:33:33.092Z,100131.54
2018-07-01T15:35:59.057Z,100119.64
2018-07-01T15:38:25.127Z,100130.55
2018-07-01T15:40:51.105Z,100139.11
2018-07-01T15:43:17.074Z,100135.45
2018-07-01T15:45:43.046Z,100138.94
2018-07-01T15:48:09.022Z,100127.70
2018-07-01T15:50:35.038Z,100134.94
2018-07-01T15:53:00.984Z,100132.58
2018-07-01T15:55:26.992Z,100131.00
2018-07-01T15:57:52.975Z,100128.44
2018-07-01T16:00:18.957Z,100112.48
2018-07-01T16:02:45.009Z,100118.92
2018-07-01T16:05:10.993Z,100118.62
2018-07-01T16:07:36.955Z,100114.34
2018-07-01T16:10:02.966Z,100112.30
2018-07-01T16:12:28.938Z,100113.81
2018-07-01T16:14:54.956Z,100113.05
2018-07-01T16:17:21.980Z,100112.19
2018-07-01T16:19:47.992Z,100105.69
2018-07-01T16:22:13.925Z,100108.56
2018-07-01T16:24:39.882Z,100115.27
2018-07-01T16:27:05.843Z,100111.55
2018-07-01T16:29:31.808Z,100106.77
2018-07-01T16:31:57.801Z,100106.48
2018-07-01T16:34:23.844Z,100107.23
2018-07-01T16:36:49.838Z,100104.71
2018-07-01T16:39:15.880Z,100108.37
2018-07-01T16:41:41.838Z,100106.01
2018-07-01T16:44:07.982Z,100095.14
2018-07-01T16:46:34.000Z,100094.77
2018-07-01T16:48:59.986Z,100099.70
2018-07-01T16:51:26.105Z,100102.49
2018-07-01T16:53:52.101Z,100101.05
2018-07-01T16:56:18.048Z,100101.42
2018-07-01T16:58:43.997Z,100107.96
2018-07-01T17:01:09.972Z,100111.75
2018-07-01T17:03:35.961Z,100102.83
2018-07-01T17:06:02.131Z,100107.73
2018-07-01T17:08:28.118Z,100111.61
2018-07-01T17:10:54.045Z,100111.32
2018-07-01T17:13:20.017Z,100111.87
2018-07-01T17:15:45.992Z,100114.09
2018-07-01T17:18:12.040Z,100109.58
2018-07-01T17:20:38.003Z,100108.08
2018-07-01T17:23:03.953Z,100115.75
2018-07-01T17:25:29.962Z,100107.12
2018-07-01T17:27:55.977Z,100107.11
2018-07-01T17:30:21.928Z,100108.48
2018-07-01T17:32:47.894Z,100111.23
2018-07-01T17:35:13.947Z,100099.81
2018-07-01T17:37:39.939Z,100108.63
2018-07-01T17:40:05.910Z,100107.73
2018-07-01T17:42:31.899Z,100105.37
2018-07-01T17:44:57.956Z,100104.34
2018-07-01T17:47:23.926Z,100101.19
2018-07-01T17:49:49.917Z,100106.48
2018-07-01T17:52:15.918Z,100109.95
2018-07-01T17:54:42.044Z,100109.34
2018-07-01T17:57:08.056Z,100106.67
2018-07-01T17:59:34.068Z,100105.35
2018-07-01T18:02:00.035Z,100104.91
2018-07-01T18:04:26.030Z,100104.91
2018-07-01T18:06:52.091Z,100102.06
2018-07-01T18:09:18.098Z,100109.09
2018-07-01T18:11:44.096Z,100106.05
2018-07-01T18:14:10.148Z,100108.00
2018-07-01T18:16:36.150Z,100108.62
2018-07-01T18:19:02.105Z,100106.01
2018-07-01T18:21:48.146Z,100108.88
2018-07-01T18:24:19.504Z,100108.55
2018-07-01T18:26:20.260Z,100104.82
2018-07-01T18:28:55.763Z,100104.98
2018-07-01T18:31:12.322Z,100109.79
2018-07-01T18:33:38.351Z,100098.95
2018-07-01T18:36:04.356Z,100102.75
2018-07-01T18:38:30.332Z,100103.28
2018-07-01T18:40:56.420Z,100106.55
2018-07-01T18:43:22.521Z,100107.06
2018-07-01T18:45:48.563Z,100112.87
2018-07-01T18:48:14.602Z,100107.72
2018-07-01T18:50:40.609Z,100110.00
2018-07-01T18:53:06.582Z,100114.37
2018-07-01T18:55:32.613Z,100113.41
2018-07-01T18:57:58.652Z,100119.48
2018-07-01T19:00:24.622Z,100116.41
2018-07-01T19:02:50.631Z,100114.78
2018-07-01T19:05:16.643Z,100114.45
2018-07-01T19:07:43.668Z,100117.16
2018-07-01T19:10:09.682Z,100121.05
2018-07-01T19:12:35.735Z,100115.67
2018-07-01T19:15:01.872Z,100123.40
2018-07-01T19:17:27.854Z,100124.31
2018-07-01T19:19:53.958Z,100129.43
2018-07-01T19:22:19.955Z,100128.56
2018-07-01T19:24:46.034Z,100131.65
2018-07-01T19:27:13.102Z,100128.63
2018-07-01T19:29:39.092Z,100128.30
2018-07-01T19:32:05.145Z,100137.56
2018-07-01T19:34:31.293Z,100129.67
2018-07-01T19:36:57.407Z,100133.19
2018-07-01T19:39:23.454Z,100129.43
2018-07-01T19:41:49.431Z,100133.14
2018-07-01T19:44:15.417Z,100135.49
2018-07-01T19:46:41.609Z,100131.13
2018-07-01T19:49:07.658Z,100127.96
2018-07-01T19:51:33.654Z,100133.89
2018-07-01T19:53:59.640Z,100132.57
2018-07-01T19:56:25.657Z,100132.49
2018-07-01T19:58:51.631Z,100133.90
2018-07-01T20:01:17.612Z,100132.66
2018-07-01T20:03:43.626Z,100135.47
2018-07-01T20:06:09.634Z,100136.08
2018-07-01T20:08:35.673Z,100135.63
2018-07-01T20:11:01.664Z,100134.94
2018-07-01T20:13:27.721Z,100130.67
2018-07-01T20:15:53.716Z,100129.90
2018-07-01T20:18:19.750Z,100131.26
2018-07-01T20:20:45.758Z,100127.73
2018-07-01T20:23:11.727Z,100126.77
2018-07-01T20:25:37.832Z,100124.56
2018-07-01T20:28:03.758Z,100131.22
2018-07-01T20:30:29.742Z,100126.88
2018-07-01T20:32:56.094Z,100132.86
2018-07-01T20:35:22.127Z,100125.88
2018-07-01T20:37:48.177Z,100127.93
2018-07-01T20:40:14.209Z,100123.81
2018-07-01T20:42:40.212Z,100125.97
2018-07-01T20:45:06.310Z,100119.55
2018-07-01T20:47:32.220Z,100128.27
2018-07-01T20:49:58.171Z,100127.86
2018-07-01T20:52:24.135Z,100130.91
2018-07-01T20:54:50.176Z,100131.23
2018-07-01T20:57:16.178Z,100126.12
2018-07-01T20:59:42.190Z,100132.12
2018-07-01T21:02:08.209Z,100134.84
2018-07-01T21:04:34.220Z,100132.18
2018-07-01T21:07:00.203Z,100129.87
2018-07-01T21:09:28.371Z,100127.99
2018-07-01T21:11:54.400Z,100128.33
2018-07-01T21:14:20.386Z,100126.62
2018-07-01T21:16:46.400Z,100130.23
2018-07-01T21:19:12.419Z,100130.85
2018-07-01T21:21:38.413Z,100129.00
2018-07-01T21:24:04.431Z,100125.23
2018-07-01T21:26:30.381Z,100127.00
2018-07-01T21:28:56.372Z,100122.05
2018-07-01T21:31:22.368Z,100126.48
2018-07-01T21:33:48.386Z,100124.47
2018-07-01T21:36:14.398Z,100127.58
2018-07-01T21:38:40.405Z,100127.91
2018-07-01T21:41:06.389Z,100129.88
2018-07-01T21:43:32.480Z,100126.94
2018-07-01T21:45:58.451Z,100128.33
2018-07-01T21:48:24.419Z,100131.17
2018-07-01T21:50:50.443Z,100129.94
2018-07-01T21:53:16.445Z,100122.59
2018-07-01T21:55:42.429Z,100123.28
2018-07-01T21:58:08.407Z,100122.72
2018-07-01T22:00:34.405Z,100123.78
2018-07-01T22:03:00.411Z,100122.80
2018-07-01T22:05:26.420Z,100121.01
2018-07-01T22:07:52.395Z,100120.95
2018-07-01T22:10:18.422Z,100120.61
2018-07-01T22:12:44.410Z,100111.55
2018-07-01T22:15:10.414Z,100120.48
2018-07-01T22:17:36.404Z,100114.89
2018-07-01T22:20:02.391Z,100106.52
2018-07-01T22:22:28.377Z,100113.62
2018-07-01T22:24:54.357Z,100113.66
2018-07-01T22:27:20.352Z,100119.70
2018-07-01T22:29:46.352Z,100120.64
2018-07-01T22:32:12.326Z,100112.81
2018-07-01T22:34:38.297Z,100116.45
2018-07-01T22:37:04.251Z,100116.22
2018-07-01T22:39:30.231Z,100116.65
2018-07-01T22:41:56.226Z,100109.59
2018-07-01T22:44:22.247Z,100112.95
2018-07-01T22:46:48.225Z,100111.97
2018-07-01T22:49:14.184Z,100111.29
2018-07-01T22:51:40.169Z,100111.19
2018-07-01T22:54:06.118Z,100113.69
2018-07-01T22:56:32.138Z,100110.18
2018-07-01T22:58:58.118Z,100118.17
2018-07-01T23:01:24.102Z,100117.47
2018-07-01T23:03:50.071Z,100118.36
2018-07-01T23:06:16.049Z,100123.17
2018-07-01T23:08:42.027Z,100124.31
2018-07-01T23:11:08.028Z,100117.21
2018-07-01T23:13:34.228Z,100123.30
2018-07-01T23:16:00.207Z,100121.50
2018-07-01T23:18:26.173Z,100119.14
2018-07-01T23:20:52.163Z,100130.38
2018-07-01T23:23:18.178Z,100122.32
2018-07-01T23:25:44.173Z,100120.51
2018-07-01T23:28:10.125Z,100118.06
2018-07-01T23:30:36.076Z,100119.31
2018-07-01T23:33:02.065Z,100117.91
2018-07-01T23:35:28.081Z,100115.41
2018-07-01T23:37:54.061Z,100115.47
2018-07-01T23:40:20.053Z,100118.70
2018-07-01T23:42:46.005Z,100115.25
2018-07-01T23:45:11.980Z,100112.16
2018-07-01T23:47:37.941Z,100102.05
2018-07-01T23:50:03.915Z,100108.59
2018-07-01T23:52:29.883Z,100108.20
2018-07-01T23:54:55.857Z,100109.41
2018-07-01T23:57:21.948Z,100113.48
2018-07-01T23:59:47.902Z,100098.91
